EmailTwitter


Observations de surface / États-Unis / KJFK (74486)

Régions: Québec | Canada | États-Unis | Europe | France | UK | Ailleurs
Station
Affichage
Infos & localisation pour KJFK (74486) | Aide pour décoder les METARs

Observations prises le 2018-02-20 à 14H51 UTC à NEW YORK/JF KENN, NY (KJFK)

Etat du ciel: couvert.

Obstacle(s) à la visibilité: brume.

Température: 10.6 Celsius

Point de rosée: 10.6 Celsius

Humidité relative: 100%

Facteur vent: 8.

Vents: Sud-ouest à 20 km/h ou 11 noeuds.

Pression au niveau moyen de la mer: 102.78 kilopascals.

Calage altimétrique: 102.78 kilopascals ou 30.35 pouces de mercure.

Visibilité horizontale: 4.00 milles terrestres ou 6.40 kilomètres.

Hauteur du plafond: 213 mètres ( 700 pieds ).

Observation METAR:

KJFK 201451Z 24011KT 4SM BR OVC007 11/11 A3035 RMK AO2 SLP278 60000 T01060106

51008=